»·PEaware :: N196EC KTRM-KHND

N196EC :: KTRM-KHND

FLIGHT INFORMATION

Flight Status: Arrived
Operator: Privately registered:
United States
More flights under this callsign
Pilot: Adrián R. (20842)
Aircraft: SOCATA TBM-900
(TBM9)
More flights by this aircraft type
Origin: KTRM Desert Resorts Regl
United States
Destination: KHND Henderson
United States
More flights between these airports :: More routes between these airports
Route: +MECCA1 TRM V514 TNP CLARR3
File this flight plan on PilotEdge
Remarks: DEPARTURE TIME 1645 UTC
Altitude:
(Current/Filed)
17,000ft
Speed:
(Current/Filed)
283kts
Departed: 18-Nov-18 08:54 AM
Arrived: 18-Nov-18 09:53 AM
Distance/Time
Traveled:
150nm/0:59
Distance/Time
To Go:
Arrived

Flight Plot

Page will automatically refresh every two minutes.

Flight plan parsing failed; only flown route is shown


Map Options




Map Legend


Flown Route
Filed Route
Departure Airport
Arrival Airport
Navaid (VOR, NDB)
Fix

Horizontal Profiles

Position Reports

Time Latitude Longitude Heading Altitude Ground
Speed
18-Nov-18 08:31 33.634761 -116.163088 90 -112ft 0kts
18-Nov-18 08:32 33.634761 -116.163088 90 -112ft 0kts
18-Nov-18 08:33 33.634761 -116.163088 90 -112ft 0kts
18-Nov-18 08:34 33.634761 -116.163088 90 -112ft 0kts
18-Nov-18 08:35 33.634761 -116.163088 90 -112ft 0kts
18-Nov-18 08:36 33.634761 -116.163088 90 -112ft 0kts
18-Nov-18 08:37 33.634761 -116.163088 90 -112ft 0kts
18-Nov-18 08:38 33.634761 -116.163088 90 -112ft 0kts
18-Nov-18 08:39 33.634761 -116.163088 90 -112ft 0kts
18-Nov-18 08:40 33.634761 -116.163088 90 -112ft 0kts
18-Nov-18 08:41 33.634761 -116.163088 90 -112ft 0kts
18-Nov-18 08:42 33.634761 -116.163088 90 -112ft 0kts
18-Nov-18 08:43 33.634761 -116.163088 90 -112ft 0kts
18-Nov-18 08:44 33.634761 -116.163088 90 -112ft 0kts
18-Nov-18 08:45 33.634761 -116.163088 90 -112ft 0kts
18-Nov-18 08:46 33.634761 -116.163088 90 -112ft 0kts
18-Nov-18 08:47 33.634138 -116.161435 90 -112ft 10kts
18-Nov-18 08:48 33.633493 -116.157736 180 -112ft 11kts
18-Nov-18 08:49 33.628976 -116.157748 180 -112ft 18kts
18-Nov-18 08:50 33.623717 -116.157751 179 -112ft 18kts
18-Nov-18 08:51 33.618622 -116.157754 180 -112ft 19kts
18-Nov-18 08:52 33.615860 -116.157483 91 -112ft 0kts
18-Nov-18 08:53 33.615860 -116.157483 91 -112ft 0kts
18-Nov-18 08:54 33.615860 -116.157483 91 -112ft 0kts
18-Nov-18 08:55 33.615860 -116.157483 91 -112ft 0kts
18-Nov-18 08:56 33.616341 -116.156436 358 -112ft 0kts
18-Nov-18 08:57 33.634554 -116.156131 10 641ft 129kts
18-Nov-18 08:58 33.626582 -116.124648 194 2805ft 155kts
18-Nov-18 08:59 33.587212 -116.130363 151 5099ft 161kts
18-Nov-18 09:00 33.548193 -116.102891 149 7143ft 167kts
18-Nov-18 09:01 33.543130 -116.057764 17 7772ft 214kts
18-Nov-18 09:02 33.583797 -116.104372 312 7755ft 230kts
18-Nov-18 09:03 33.619934 -116.150006 314 10082ft 165kts
18-Nov-18 09:04 33.655899 -116.157141 61 11603ft 174kts
18-Nov-18 09:05 33.682756 -116.111507 89 12959ft 183kts
18-Nov-18 09:06 33.721331 -116.077216 11 13019ft 218kts
18-Nov-18 09:07 33.777180 -116.040616 32 13008ft 245kts
18-Nov-18 09:08 33.833938 -115.994916 32 13836ft 222kts
18-Nov-18 09:09 33.881542 -115.956546 31 15534ft 206kts
18-Nov-18 09:10 33.932620 -115.915345 31 16019ft 248kts
18-Nov-18 09:11 33.993187 -115.866383 31 16003ft 271kts
18-Nov-18 09:12 34.055982 -115.815532 31 15999ft 272kts
18-Nov-18 09:13 34.117517 -115.763584 39 15995ft 274kts
18-Nov-18 09:14 34.173321 -115.701336 40 16001ft 274kts
18-Nov-18 09:15 34.229326 -115.638368 40 16001ft 276kts
18-Nov-18 09:16 34.285578 -115.574992 40 16005ft 277kts
18-Nov-18 09:17 34.346354 -115.520697 17 16030ft 272kts
18-Nov-18 09:18 34.417541 -115.489699 17 16036ft 273kts
18-Nov-18 09:19 34.488936 -115.458614 17 16041ft 273kts
18-Nov-18 09:20 34.559940 -115.426654 29 16020ft 275kts
18-Nov-18 09:21 34.625434 -115.386673 10 16048ft 272kts
18-Nov-18 09:22 34.698730 -115.365406 14 16071ft 271kts
18-Nov-18 09:23 34.765143 -115.338614 17 16063ft 273kts
18-Nov-18 09:24 34.836267 -115.307871 17 16062ft 273kts
18-Nov-18 09:25 34.907755 -115.276904 17 16062ft 272kts
18-Nov-18 09:26 34.978840 -115.245840 17 16062ft 271kts
18-Nov-18 09:27 35.048802 -115.211793 19 16061ft 271kts
18-Nov-18 09:28 35.117447 -115.176377 19 16060ft 271kts
18-Nov-18 09:29 35.186222 -115.140869 19 16056ft 272kts
18-Nov-18 09:30 35.255976 -115.104833 19 16016ft 272kts
18-Nov-18 09:31 35.325116 -115.069515 19 14433ft 268kts
18-Nov-18 09:32 35.390629 -115.027624 56 12829ft 282kts
18-Nov-18 09:33 35.425877 -114.942830 40 11340ft 278kts
18-Nov-18 09:34 35.489724 -114.892397 30 10152ft 276kts
18-Nov-18 09:35 35.552111 -114.842756 30 10091ft 261kts
18-Nov-18 09:36 35.612405 -114.794637 30 10098ft 258kts
18-Nov-18 09:37 35.676092 -114.762030 348 10126ft 252kts
18-Nov-18 09:38 35.744120 -114.782848 344 10119ft 253kts
18-Nov-18 09:39 35.812390 -114.804694 344 10118ft 253kts
18-Nov-18 09:40 35.880343 -114.826479 344 10118ft 253kts
18-Nov-18 09:41 35.948062 -114.848227 344 10118ft 253kts
18-Nov-18 09:42 35.993009 -114.901821 292 10100ft 254kts
18-Nov-18 09:43 36.047960 -114.896897 67 9336ft 253kts
18-Nov-18 09:44 36.021554 -114.818593 120 8217ft 260kts
18-Nov-18 09:45 35.969871 -114.760466 161 7396ft 266kts
18-Nov-18 09:46 35.912382 -114.736342 161 7114ft 255kts
18-Nov-18 09:47 35.892778 -114.792335 335 6988ft 231kts
18-Nov-18 09:48 35.939843 -114.844675 330 6959ft 230kts
18-Nov-18 09:49 35.988953 -114.867999 313 6943ft 231kts
18-Nov-18 09:50 35.985323 -114.945471 263 5682ft 221kts
18-Nov-18 09:51 35.976267 -115.025345 263 5688ft 190kts
18-Nov-18 09:52 35.970625 -115.075444 255 4789ft 164kts
18-Nov-18 09:53 35.941832 -115.100719 219 3813ft 102kts
18-Nov-18 09:54 35.935313 -115.129941 309 3550ft 94kts
18-Nov-18 09:55 35.956378 -115.135707 2 2693ft 84kts
18-Nov-18 09:56 35.970873 -115.135939 281 2449ft 11kts
18-Nov-18 09:57 35.970917 -115.136228 281 2449ft 0kts
18-Nov-18 09:58 35.970917 -115.136228 281 2449ft 0kts
18-Nov-18 09:59 35.972777 -115.136438 0 2449ft 14kts
18-Nov-18 10:00 35.976213 -115.136395 0 2449ft 10kts
18-Nov-18 10:01 35.977212 -115.137950 265 2449ft 8kts
18-Nov-18 10:02 35.978179 -115.138558 6 2449ft 8kts
18-Nov-18 10:03 35.978578 -115.138182 357 2449ft 0kts
18-Nov-18 10:04 35.978578 -115.138182 357 2449ft 0kts
18-Nov-18 10:05 35.978578 -115.138182 357 2449ft 0kts
18-Nov-18 10:06 35.978578 -115.138182 357 2449ft 0kts
18-Nov-18 10:07 35.978578 -115.138182 357 2449ft 0kts

Navigation Log

Ident Type
Flight plan parsing failed, navigation log unavailable